Lng/c Golar Seal — V7AE9 — position and weather

sailwx.info

Track history (hours):
 
Tides and Currents Weather Stations Pressure Air Temp Water Temp Dewpoint Dewpoint Depression Visibility Wind Speed Wind Dir Waves Ship Positions

Lng/c Golar Seal

Last reported at 2017-Sep-20 16:42 UTC. Time now 2017-Sep-20 18:13 UTC.
Position N 36°08' W 005°23'.

Length 281 m; draft 9.2 m.

Type: Tanker. MMSI: 538004980.

Date/timePositionNaut miles runAvg speedWind from/ knotsBaromVisibWave heightAir tempDewpointWater temp
2017-Sep-20 16:42N 36°08' W 005°23'0 0.0
2017-Sep-20 13:42N 36°08' W 005°23'0 0.3
2017-Sep-20 13:27N 36°08' W 005°23'0 0.1
2017-Sep-20 12:57N 36°08' W 005°23'3 1.5
2017-Sep-20 11:11N 36°05' W 005°22'1 4.4
2017-Sep-20 11:00N 36°05' W 005°21'3 6.4
2017-Sep-20 10:30N 36°06' W 005°17'5 1.7
2017-Sep-20 07:42N 36°06' W 005°11'2 6.2
2017-Sep-20 07:25N 36°06' W 005°13'3 7.0
2017-Sep-20 07:00N 36°03' W 005°15'510.4
2017-Sep-20 06:30N 35°60' W 005°19'612.6
2017-Sep-20 06:00N 35°58' W 005°27'913.1
2017-Sep-20 05:18N 35°55' W 005°38'1213.0
2017-Sep-20 04:20N 35°55' W 005°53'511.6
2017-Sep-20 03:56N 35°54' W 005°59'2011.1
2017-Sep-20 02:09N 35°54' W 006°24'210.6
2017-Sep-20 01:59N 35°54' W 006°26'1310.5
2017-Sep-20 00:45N 35°55' W 006°42'1610.3
2017-Sep-19 23:09N 35°58' W 007°02'15 8.7
2017-Sep-19 21:26N 36°12' W 006°57'510.9
2017-Sep-19 21:00N 36°16' W 006°52'  
2017-Sep-15 17:52N 36°28' W 006°36'0 0.0
2017-Sep-14 23:46N 36°28' W 006°36'0 0.0
2017-Sep-14 23:16N 36°28' W 006°36'  
Track history (hours):
 
Tides and Currents Weather Stations Pressure Air Temp Water Temp Dewpoint Dewpoint Depression Visibility Wind Speed Wind Dir Waves Ship Positions

Lng/c Golar Seal

Last reported at 2017-Sep-20 16:42 UTC. Time now 2017-Sep-20 18:13 UTC.
Position N 36°08' W 005°23'.

Length 281 m; draft 9.2 m.

Type: Tanker. MMSI: 538004980.

Date/timePositionNaut miles runAvg speedWind from/ knotsBaromVisibWave heightAir tempDewpointWater temp
2017-Sep-20 16:42N 36°08' W 005°23'0 0.0
2017-Sep-20 13:42N 36°08' W 005°23'0 0.3
2017-Sep-20 13:27N 36°08' W 005°23'0 0.1
2017-Sep-20 12:57N 36°08' W 005°23'3 1.5
2017-Sep-20 11:11N 36°05' W 005°22'1 4.4
2017-Sep-20 11:00N 36°05' W 005°21'3 6.4
2017-Sep-20 10:30N 36°06' W 005°17'5 1.7
2017-Sep-20 07:42N 36°06' W 005°11'2 6.2
2017-Sep-20 07:25N 36°06' W 005°13'3 7.0
2017-Sep-20 07:00N 36°03' W 005°15'510.4
2017-Sep-20 06:30N 35°60' W 005°19'612.6
2017-Sep-20 06:00N 35°58' W 005°27'913.1
2017-Sep-20 05:18N 35°55' W 005°38'1213.0
2017-Sep-20 04:20N 35°55' W 005°53'511.6
2017-Sep-20 03:56N 35°54' W 005°59'2011.1
2017-Sep-20 02:09N 35°54' W 006°24'210.6
2017-Sep-20 01:59N 35°54' W 006°26'1310.5
2017-Sep-20 00:45N 35°55' W 006°42'1610.3
2017-Sep-19 23:09N 35°58' W 007°02'15 8.7
2017-Sep-19 21:26N 36°12' W 006°57'510.9
2017-Sep-19 21:00N 36°16' W 006°52'  
2017-Sep-15 17:52N 36°28' W 006°36'0 0.0
2017-Sep-14 23:46N 36°28' W 006°36'0 0.0
2017-Sep-14 23:16N 36°28' W 006°36'  

Dump ship's entire track history